Time;durP1;ratioP1;P1;durP2;ratioP2;P2;SDS_P1;SDS_P2;PMS_P1;PMS_P2;Temp;Humidity;BMP_temperature;BMP_pressure;BME280_temperature;BME280_humidity;BME280_pressure;Samples;Min_cycle;Max_cycle;Signal;HPM_P1;HPM_P2
2023/09/09 00:01:49;;;;;;;12.40;9.73;;;;;;;25.33;100.00;96328.53;6161697;23;20005;-84
2023/09/09 00:04:15;;;;;;;13.73;11.18;;;;;;;25.31;100.00;96329.84;6130744;23;20306;-84
2023/09/09 00:06:40;;;;;;;14.82;10.15;;;;;;;25.34;100.00;96326.66;6160095;23;20020;-92
2023/09/09 00:09:06;;;;;;;10.73;9.35;;;;;;;25.63;100.00;96320.00;6135854;23;20063;-93
2023/09/09 00:11:32;;;;;;;15.07;9.75;;;;;;;25.34;100.00;96327.47;6135195;23;20015;-93
2023/09/09 00:13:57;;;;;;;15.88;9.63;;;;;;;25.37;100.00;96326.97;6135635;23;20017;-92
2023/09/09 00:16:23;;;;;;;15.65;10.63;;;;;;;24.92;100.00;96329.84;6160449;23;20000;-92
2023/09/09 00:18:48;;;;;;;13.07;10.07;;;;;;;25.12;100.00;96332.03;6136263;23;20004;-92
2023/09/09 00:21:14;;;;;;;13.05;10.10;;;;;;;25.10;100.00;96318.78;6160423;23;20008;-93
2023/09/09 00:23:40;;;;;;;11.98;9.93;;;;;;;25.09;100.00;96325.25;6138652;23;20016;-93
2023/09/09 00:26:05;;;;;;;15.77;10.00;;;;;;;25.44;100.00;96324.09;6160683;23;20012;-92
2023/09/09 00:28:32;;;;;;;13.98;9.50;;;;;;;25.27;100.00;96320.66;6154572;23;20049;-92
2023/09/09 00:30:58;;;;;;;11.02;9.38;;;;;;;25.34;100.00;96327.47;6155573;23;20012;-92
2023/09/09 00:33:23;;;;;;;13.77;9.60;;;;;;;25.40;100.00;96326.47;6142535;23;20009;-92
2023/09/09 00:35:49;;;;;;;12.95;10.13;;;;;;;25.34;100.00;96323.97;6135007;23;20005;-92
2023/09/09 00:38:14;;;;;;;12.48;9.68;;;;;;;25.21;100.00;96319.75;6135129;23;20429;-93
2023/09/09 00:40:46;;;;;;;13.10;9.18;;;;;;;25.37;100.00;96316.19;6158991;23;20016;-92
2023/09/09 00:43:12;;;;;;;13.90;10.85;;;;;;;25.26;100.00;96314.44;6134248;23;20016;-93
2023/09/09 00:45:39;;;;;;;12.70;9.70;;;;;;;25.28;100.00;96316.88;6135111;23;20389;-93
2023/09/09 00:48:04;;;;;;;14.40;10.07;;;;;;;25.22;100.00;96315.19;6134797;23;20020;-93
2023/09/09 00:50:30;;;;;;;13.88;10.15;;;;;;;24.85;100.00;96323.84;6133717;23;20009;-92
2023/09/09 00:52:56;;;;;;;12.68;10.32;;;;;;;24.84;100.00;96322.19;6159103;23;20005;-92
2023/09/09 00:55:26;;;;;;;12.30;10.75;;;;;;;24.76;100.00;96320.75;6134552;23;20031;-92
2023/09/09 00:57:52;;;;;;;13.05;10.40;;;;;;;25.15;100.00;96315.38;6133253;23;20010;-92
2023/09/09 01:00:18;;;;;;;15.85;10.40;;;;;;;24.96;100.00;96311.34;6134322;23;20039;-93
2023/09/09 01:02:43;;;;;;;14.07;10.60;;;;;;;24.93;100.00;96312.66;6158424;23;20004;-92
2023/09/09 01:05:10;;;;;;;14.02;11.35;;;;;;;24.96;100.00;96312.16;6135084;23;20012;-92
2023/09/09 01:07:47;;;;;;;13.57;10.68;;;;;;;24.88;100.00;96307.19;6134523;23;20345;-93
2023/09/09 01:10:14;;;;;;;12.70;11.05;;;;;;;24.72;100.00;96297.28;6136216;23;20349;-93
2023/09/09 01:12:42;;;;;;;14.48;11.30;;;;;;;24.56;100.00;96305.13;6134679;23;20062;-92
2023/09/09 01:15:08;;;;;;;11.80;10.60;;;;;;;24.53;100.00;96305.63;6136252;23;20005;-93
2023/09/09 01:17:35;;;;;;;13.82;12.27;;;;;;;24.37;100.00;96306.41;6134396;23;20309;-92
2023/09/09 01:20:14;;;;;;;14.68;11.43;;;;;;;24.21;100.00;96306.16;6134814;23;20009;-93
2023/09/09 01:22:41;;;;;;;14.23;11.45;;;;;;;23.50;100.00;96310.22;6158892;23;20009;-92
2023/09/09 01:25:07;;;;;;;12.73;11.00;;;;;;;24.18;100.00;96303.16;6159072;23;20005;-93
2023/09/09 01:27:33;;;;;;;16.42;11.75;;;;;;;24.10;100.00;96300.84;6158349;23;20192;-93
2023/09/09 01:29:59;;;;;;;15.77;12.45;;;;;;;23.98;100.00;96299.06;6134381;23;20008;-93
2023/09/09 01:32:25;;;;;;;14.38;11.85;;;;;;;24.02;100.00;96303.94;6159050;23;20009;-92
2023/09/09 01:34:51;;;;;;;13.38;11.15;;;;;;;24.20;100.00;96295.66;6134448;23;20714;-93
2023/09/09 01:37:17;;;;;;;14.35;11.77;;;;;;;24.18;100.00;96298.59;6134439;23;20051;-92
2023/09/09 01:39:44;;;;;;;13.73;11.68;;;;;;;24.03;100.00;96308.25;6134986;23;20007;-93
2023/09/09 01:42:10;;;;;;;16.98;11.82;;;;;;;24.27;100.00;96304.34;6133888;23;20100;-92
2023/09/09 01:44:35;;;;;;;15.82;11.27;;;;;;;24.38;100.00;96306.16;6134564;23;20036;-93
2023/09/09 01:47:02;;;;;;;15.82;11.95;;;;;;;24.14;100.00;96302.81;6134186;23;20005;-93
2023/09/09 01:49:29;;;;;;;13.77;11.18;;;;;;;24.41;100.00;96310.25;6134986;23;20353;-93
2023/09/09 01:51:55;;;;;;;14.43;11.25;;;;;;;24.63;100.00;96305.75;6134865;23;20016;-93
2023/09/09 01:54:20;;;;;;;16.08;12.38;;;;;;;24.39;100.00;96305.09;6135325;23;20009;-92
2023/09/09 01:56:46;;;;;;;16.67;12.07;;;;;;;24.09;100.00;96304.59;6135127;23;20015;-93
2023/09/09 01:59:11;;;;;;;13.13;11.40;;;;;;;23.49;100.00;96305.91;6135667;23;20001;-92
2023/09/09 02:01:37;;;;;;;13.63;10.82;;;;;;;23.82;100.00;96296.34;6150316;23;20035;-92
2023/09/09 02:04:02;;;;;;;14.07;11.73;;;;;;;23.77;100.00;96299.75;6155930;23;20019;-93
2023/09/09 02:06:28;;;;;;;13.35;11.35;;;;;;;23.95;100.00;96301.41;6151516;23;20430;-93
2023/09/09 02:08:54;;;;;;;16.30;11.82;;;;;;;23.96;100.00;96300.34;6160081;23;20009;-93
2023/09/09 02:11:20;;;;;;;14.60;11.15;;;;;;;24.24;100.00;96302.16;6135504;23;19997;-93
2023/09/09 02:13:46;;;;;;;16.25;11.77;;;;;;;24.04;100.00;96299.94;6159693;23;20151;-92
2023/09/09 02:16:11;;;;;;;14.32;11.95;;;;;;;24.46;100.00;96295.03;6159960;23;20013;-93
2023/09/09 02:18:37;;;;;;;12.93;11.43;;;;;;;24.33;100.00;96289.13;6135225;23;20008;-93
2023/09/09 02:21:05;;;;;;;14.07;11.68;;;;;;;24.07;100.00;96296.78;6135228;23;20033;-93
2023/09/09 02:23:31;;;;;;;13.52;11.98;;;;;;;24.16;100.00;96289.13;6136763;23;20004;-93
2023/09/09 02:25:56;;;;;;;16.40;12.10;;;;;;;24.75;100.00;96286.00;6136702;23;20092;-91
2023/09/09 02:28:23;;;;;;;15.60;12.05;;;;;;;24.87;100.00;96290.22;6137002;23;20009;-92
2023/09/09 02:30:49;;;;;;;15.60;12.02;;;;;;;24.55;100.00;96291.94;6136825;23;20005;-93
2023/09/09 02:33:15;;;;;;;18.85;12.88;;;;;;;24.69;100.00;96293.22;6136891;23;20015;-93
2023/09/09 02:35:44;;;;;;;14.88;11.85;;;;;;;24.53;100.00;96292.16;6136773;23;20009;-93
2023/09/09 02:38:10;;;;;;;17.17;12.68;;;;;;;24.52;100.00;96281.69;6136641;23;20005;-92
2023/09/09 02:40:35;;;;;;;17.60;13.07;;;;;;;24.30;100.00;96285.06;6136723;23;20056;-93
2023/09/09 02:43:14;;;;;;;16.13;12.77;;;;;;;24.34;100.00;96290.75;6161502;23;20009;-93
2023/09/09 02:45:40;;;;;;;15.20;12.55;;;;;;;23.95;100.00;96296.03;6137069;23;20001;-92
2023/09/09 02:48:05;;;;;;;15.07;12.77;;;;;;;24.08;100.00;96290.38;6136559;23;20020;-93
2023/09/09 02:50:31;;;;;;;15.57;12.65;;;;;;;23.78;100.00;96298.72;6136959;23;20001;-93
2023/09/09 02:52:57;;;;;;;14.93;11.95;;;;;;;24.07;100.00;96290.59;6136231;23;20004;-93
2023/09/09 02:55:22;;;;;;;14.38;12.68;;;;;;;23.96;100.00;96286.94;6137007;23;20421;-93
2023/09/09 02:57:49;;;;;;;15.00;12.40;;;;;;;24.11;100.00;96291.72;6136246;23;20378;-93
2023/09/09 03:00:15;;;;;;;14.25;11.82;;;;;;;24.46;100.00;96284.28;6134360;23;20425;-93
2023/09/09 03:02:43;;;;;;;15.68;12.35;;;;;;;24.56;100.00;96285.50;6161003;23;20028;-93
2023/09/09 03:05:09;;;;;;;13.60;12.10;;;;;;;24.34;100.00;96280.00;6136854;23;20084;-92
2023/09/09 03:07:35;;;;;;;13.90;11.80;;;;;;;24.34;100.00;96286.19;6151200;23;20044;-93
2023/09/09 03:10:02;;;;;;;15.80;12.80;;;;;;;24.56;100.00;96278.25;6146832;23;20455;-88
2023/09/09 03:12:28;;;;;;;17.42;13.13;;;;;;;24.49;100.00;96279.47;6161108;23;20005;-93
2023/09/09 03:14:53;;;;;;;13.13;11.73;;;;;;;24.79;100.00;96281.78;6143097;23;20363;-93
2023/09/09 03:17:19;;;;;;;16.52;13.40;;;;;;;24.54;100.00;96279.53;6171241;23;20028;-93
2023/09/09 03:19:45;;;;;;;17.25;13.95;;;;;;;24.10;100.00;96285.53;6140877;23;20096;-93
2023/09/09 03:22:27;;;;;;;16.83;14.90;;;;;;;23.63;100.00;96280.41;6135987;23;20009;-93
2023/09/09 03:24:53;;;;;;;16.38;14.68;;;;;;;24.05;100.00;96281.97;6136425;23;20005;-92
2023/09/09 03:27:19;;;;;;;16.38;14.52;;;;;;;23.76;100.00;96284.69;6136532;23;20008;-93
2023/09/09 03:29:45;;;;;;;18.95;15.60;;;;;;;23.39;100.00;96287.75;6135967;23;20077;-93
2023/09/09 03:32:11;;;;;;;17.40;14.65;;;;;;;22.91;100.00;96288.06;6136385;23;20008;-93
2023/09/09 03:34:38;;;;;;;17.00;14.38;;;;;;;23.12;100.00;96287.47;6136332;23;20012;-93
2023/09/09 03:37:03;;;;;;;20.58;14.77;;;;;;;22.97;100.00;96290.66;6136014;23;20032;-93
2023/09/09 03:39:29;;;;;;;20.20;15.77;;;;;;;22.71;100.00;96291.94;6136223;23;20005;-93
2023/09/09 03:41:55;;;;;;;18.40;16.10;;;;;;;22.81;100.00;96294.84;6160591;23;20001;-93
2023/09/09 03:44:21;;;;;;;17.15;15.38;;;;;;;23.03;100.00;96294.25;6136416;23;20015;-93
2023/09/09 03:46:47;;;;;;;18.20;15.20;;;;;;;22.93;100.00;96286.00;6160802;23;20008;-93
2023/09/09 03:49:12;;;;;;;19.42;14.75;;;;;;;23.10;100.00;96289.56;6136408;23;20314;-93
2023/09/09 03:51:38;;;;;;;19.52;15.18;;;;;;;22.86;100.00;96296.00;6136485;23;20005;-94
2023/09/09 03:54:05;;;;;;;19.42;15.45;;;;;;;22.72;100.00;96293.56;6136659;23;20011;-93
2023/09/09 03:56:30;;;;;;;20.92;16.33;;;;;;;22.92;100.00;96290.50;6137241;23;20380;-94
2023/09/09 03:58:56;;;;;;;19.85;15.05;;;;;;;23.27;100.00;96293.16;6136440;23;20007;-94
2023/09/09 04:01:22;;;;;;;18.15;16.25;;;;;;;23.02;100.00;96300.66;6137653;23;20334;-93
2023/09/09 04:03:47;;;;;;;18.65;15.77;;;;;;;23.18;100.00;96299.13;6149247;23;20004;-93
2023/09/09 04:06:17;;;;;;;19.13;16.10;;;;;;;23.45;100.00;96294.84;6159506;23;20009;-93
2023/09/09 04:09:20;;;;;;;17.13;14.75;;;;;;;23.28;100.00;96302.03;6181870;23;20012;-94
2023/09/09 04:11:46;;;;;;;17.45;15.63;;;;;;;23.39;100.00;96297.66;6136955;23;20009;-93
2023/09/09 04:14:12;;;;;;;19.13;17.08;;;;;;;23.31;100.00;96304.22;6168497;23;20012;-94
2023/09/09 04:16:37;;;;;;;20.40;17.08;;;;;;;23.47;100.00;96294.59;6144475;23;20005;-93
2023/09/09 04:19:03;;;;;;;22.67;16.67;;;;;;;23.49;100.00;96295.16;6145139;23;20005;-93
2023/09/09 04:21:29;;;;;;;18.42;15.88;;;;;;;23.56;100.00;96298.53;6164058;23;20342;-93
2023/09/09 04:23:55;;;;;;;18.45;15.70;;;;;;;23.71;100.00;96293.47;6138042;23;20039;-94
2023/09/09 04:26:20;;;;;;;17.35;15.52;;;;;;;23.84;100.00;96291.53;6137276;23;20005;-94
2023/09/09 04:28:46;;;;;;;18.27;16.02;;;;;;;23.83;100.00;96301.47;6138145;23;20008;-93
2023/09/09 04:31:12;;;;;;;18.80;16.25;;;;;;;23.71;100.00;96298.03;6137303;23;20422;-93
2023/09/09 04:33:40;;;;;;;17.30;15.50;;;;;;;23.49;100.00;96295.16;6138276;23;20008;-94
2023/09/09 04:36:06;;;;;;;19.08;15.38;;;;;;;23.01;100.00;96304.41;6137327;23;20012;-93
2023/09/09 04:38:32;;;;;;;17.27;15.48;;;;;;;23.66;100.00;96298.72;6158821;23;20052;-92
2023/09/09 04:40:58;;;;;;;16.80;14.95;;;;;;;23.68;100.00;96295.84;6161905;23;20017;-93
2023/09/09 04:43:23;;;;;;;18.10;16.20;;;;;;;23.99;100.00;96289.13;6148824;23;20009;-94
2023/09/09 04:45:49;;;;;;;17.30;15.50;;;;;;;23.82;100.00;96296.34;6161792;23;20005;-93
2023/09/09 04:48:15;;;;;;;20.02;15.55;;;;;;;23.72;100.00;96300.47;6161362;23;20008;-93
2023/09/09 04:50:40;;;;;;;21.02;16.05;;;;;;;23.56;100.00;96300.41;6137135;23;20001;-93
2023/09/09 04:53:07;;;;;;;18.88;16.25;;;;;;;23.59;100.00;96295.38;6136664;23;20005;-94
2023/09/09 04:55:33;;;;;;;18.50;15.77;;;;;;;23.53;100.00;96296.31;6136035;23;20033;-94
2023/09/09 04:57:59;;;;;;;18.75;15.10;;;;;;;23.79;100.00;96299.53;6138584;23;20484;-93
2023/09/09 05:00:25;;;;;;;18.80;15.65;;;;;;;23.60;100.00;96297.00;6136334;23;20005;-93
2023/09/09 05:02:51;;;;;;;20.88;16.83;;;;;;;23.46;100.00;96296.47;6136717;23;20391;-93
2023/09/09 05:05:17;;;;;;;17.58;15.02;;;;;;;23.66;100.00;96297.91;6187177;23;20310;-94
2023/09/09 05:07:43;;;;;;;19.10;16.92;;;;;;;23.53;100.00;96297.13;6144204;23;20011;-93
2023/09/09 05:10:08;;;;;;;19.20;16.92;;;;;;;23.39;100.00;96308.41;6145729;23;20024;-94
2023/09/09 05:12:38;;;;;;;18.73;15.77;;;;;;;23.38;100.00;96302.22;6175419;23;20009;-92
2023/09/09 05:15:07;;;;;;;20.63;16.15;;;;;;;23.67;100.00;96303.03;6152516;23;20001;-93
2023/09/09 05:17:33;;;;;;;18.83;16.10;;;;;;;23.43;100.00;96302.31;6147422;23;20032;-93
2023/09/09 05:19:59;;;;;;;17.58;15.75;;;;;;;23.69;100.00;96295.59;6147777;23;20031;-93
2023/09/09 05:22:25;;;;;;;21.38;17.65;;;;;;;23.18;100.00;96296.44;6139846;23;20009;-93
2023/09/09 05:24:50;;;;;;;17.98;16.02;;;;;;;23.45;100.00;96302.88;6160492;23;20020;-93
2023/09/09 05:27:16;;;;;;;19.60;15.73;;;;;;;23.73;100.00;96295.91;6160452;23;20013;-93
2023/09/09 05:29:43;;;;;;;21.33;17.50;;;;;;;23.64;100.00;96298.16;6135625;23;20001;-92
2023/09/09 05:32:13;;;;;;;17.05;15.25;;;;;;;24.00;100.00;96290.75;6135199;23;20013;-92
2023/09/09 05:34:38;;;;;;;16.52;14.75;;;;;;;24.06;100.00;96300.53;6137077;23;20005;-93
2023/09/09 05:37:04;;;;;;;17.38;14.73;;;;;;;24.43;100.00;96294.69;6136386;23;20029;-94
2023/09/09 05:39:30;;;;;;;16.85;14.30;;;;;;;24.41;100.00;96296.81;6136523;23;20005;-93
2023/09/09 05:41:56;;;;;;;16.98;14.00;;;;;;;24.27;100.00;96306.25;6135855;23;20012;-94
2023/09/09 05:44:22;;;;;;;18.50;14.27;;;;;;;24.34;100.00;96302.31;6136867;23;20087;-93
2023/09/09 05:46:48;;;;;;;15.98;14.15;;;;;;;24.92;100.00;96298.38;6136760;23;20460;-93
2023/09/09 05:49:30;;;;;;;17.75;13.45;;;;;;;24.97;100.00;96303.00;6136969;23;20448;-93
2023/09/09 05:51:55;;;;;;;17.65;14.65;;;;;;;24.82;100.00;96306.31;6136172;23;20036;-93
2023/09/09 05:54:21;;;;;;;16.50;13.07;;;;;;;25.37;100.00;96307.31;6187216;23;20550;-92
2023/09/09 05:56:47;;;;;;;18.85;13.43;;;;;;;25.25;100.00;96312.00;6137191;23;20036;-93
2023/09/09 05:59:12;;;;;;;18.00;14.50;;;;;;;25.56;100.00;96315.88;6139113;23;20005;-94
2023/09/09 06:01:38;;;;;;;14.43;12.45;;;;;;;26.13;100.00;96314.59;6140720;23;20005;-93
2023/09/09 06:04:04;;;;;;;15.73;13.93;;;;;;;25.82;100.00;96316.97;6140544;23;20009;-93
2023/09/09 06:06:30;;;;;;;16.92;13.68;;;;;;;26.34;100.00;96317.19;6146830;23;20005;-93
2023/09/09 06:08:57;;;;;;;17.35;13.23;;;;;;;26.87;100.00;96316.53;6158245;23;20008;-93
2023/09/09 06:11:23;;;;;;;15.27;13.15;;;;;;;27.29;100.00;96321.91;6189552;23;20005;-93
2023/09/09 06:13:49;;;;;;;15.45;13.05;;;;;;;27.12;100.00;96323.94;6190528;23;20005;-93
2023/09/09 06:16:19;;;;;;;16.25;14.05;;;;;;;26.30;100.00;96324.19;6139271;23;20004;-93
2023/09/09 06:18:45;;;;;;;15.20;13.50;;;;;;;26.26;100.00;96322.28;6161197;23;20008;-87
2023/09/09 06:21:11;;;;;;;15.93;14.25;;;;;;;26.33;100.00;96325.56;6134048;23;20088;-87
2023/09/09 06:23:37;;;;;;;16.35;14.30;;;;;;;26.00;100.00;96329.31;6134534;23;20001;-86
2023/09/09 06:26:04;;;;;;;15.88;14.15;;;;;;;25.91;100.00;96334.31;6134177;23;20028;-87
2023/09/09 06:28:29;;;;;;;15.32;13.68;;;;;;;26.55;100.00;96333.56;6133835;23;20016;-87
2023/09/09 06:30:55;;;;;;;14.82;13.32;;;;;;;27.84;100.00;96334.03;6131733;23;20001;-87
2023/09/09 06:33:21;;;;;;;14.00;12.32;;;;;;;28.44;100.00;96331.69;6134525;23;20430;-87
2023/09/09 06:35:50;;;;;;;15.60;13.10;;;;;;;28.38;100.00;96340.84;6133288;23;20039;-87
2023/09/09 06:38:19;;;;;;;15.48;12.48;;;;;;;28.88;96.18;96340.03;6157724;23;20060;-87
2023/09/09 06:40:45;;;;;;;15.05;13.45;;;;;;;28.40;100.00;96344.94;6134222;23;20005;-87
2023/09/09 06:43:13;;;;;;;14.00;12.60;;;;;;;28.52;100.00;96351.97;6135817;23;20008;-87
2023/09/09 06:45:39;;;;;;;15.38;13.50;;;;;;;28.93;99.39;96343.81;6158261;23;20464;-86
2023/09/09 06:48:17;;;;;;;14.68;12.88;;;;;;;28.94;99.56;96337.31;6132407;23;20016;-87
2023/09/09 06:50:49;;;;;;;14.35;12.45;;;;;;;30.01;95.17;96340.47;6158328;23;20043;-87
2023/09/09 06:53:15;;;;;;;13.82;12.40;;;;;;;30.36;90.70;96335.13;6132904;23;20005;-86
2023/09/09 06:55:45;;;;;;;15.23;13.55;;;;;;;30.01;95.16;96340.47;6157558;23;20455;-87
2023/09/09 06:58:12;;;;;;;17.55;13.50;;;;;;;30.68;84.72;96342.72;6132357;23;20005;-87
2023/09/09 07:00:41;;;;;;;13.50;11.73;;;;;;;31.45;85.36;96343.59;6157828;23;20078;-85
2023/09/09 07:03:07;;;;;;;13.70;12.23;;;;;;;31.52;81.55;96345.16;6156085;23;20016;-86
2023/09/09 07:05:33;;;;;;;15.15;13.05;;;;;;;31.34;84.57;96335.84;6136735;23;20353;-85
2023/09/09 07:07:59;;;;;;;13.52;12.15;;;;;;;32.01;76.84;96350.25;6155515;23;20012;-85
2023/09/09 07:10:25;;;;;;;15.05;12.50;;;;;;;32.29;77.75;96342.22;6156853;23;20005;-85
2023/09/09 07:12:58;;;;;;;17.02;11.90;;;;;;;33.17;69.90;96343.25;6132112;23;20012;-86
2023/09/09 07:15:24;;;;;;;17.50;11.75;;;;;;;33.48;70.63;96345.38;6131985;23;20050;-85
2023/09/09 07:17:59;;;;;;;16.55;11.52;;;;;;;33.20;74.06;96344.53;6131642;23;20013;-87
2023/09/09 07:20:24;;;;;;;17.83;12.57;;;;;;;32.33;79.01;96348.72;6130979;23;20005;-86
2023/09/09 07:22:50;;;;;;;12.52;11.18;;;;;;;33.43;73.13;96348.97;6131701;23;20428;-86
2023/09/09 07:25:15;;;;;;;14.55;11.25;;;;;;;33.27;76.95;96343.03;6133998;23;20000;-85
2023/09/09 07:27:41;;;;;;;11.88;9.60;;;;;;;34.58;69.26;96342.44;6130096;23;20001;-86
2023/09/09 07:30:07;;;;;;;11.13;9.75;;;;;;;34.33;74.33;96351.22;6131498;23;19997;-86
2023/09/09 07:32:33;;;;;;;15.63;10.80;;;;;;;33.93;69.16;96351.00;6155898;23;20051;-85
2023/09/09 07:35:02;;;;;;;13.38;11.07;;;;;;;34.83;64.98;96351.13;6130323;23;20086;-84
2023/09/09 07:37:28;;;;;;;13.30;11.13;;;;;;;35.51;62.49;96349.03;6181068;23;20008;-84
2023/09/09 07:39:57;;;;;;;13.07;10.63;;;;;;;35.72;61.94;96347.38;6155821;23;20028;-84
2023/09/09 07:42:22;;;;;;;13.20;10.25;;;;;;;35.83;58.40;96345.13;6180497;23;20005;-84
2023/09/09 07:45:43;;;;;;;12.75;9.38;;;;;;;36.17;55.59;96351.81;6155600;23;20004;-84
2023/09/09 07:48:08;;;;;;;10.35;8.35;;;;;;;36.69;54.19;96355.38;6130762;23;20005;-84
2023/09/09 07:50:34;;;;;;;12.65;9.18;;;;;;;36.65;55.19;96354.38;6155318;23;20001;-84
2023/09/09 07:52:59;;;;;;;12.27;8.15;;;;;;;37.81;49.58;96336.13;6130878;23;20058;-85
2023/09/09 07:55:25;;;;;;;9.27;7.78;;;;;;;37.82;47.23;96345.94;6157988;23;20004;-90
2023/09/09 07:57:50;;;;;;;9.25;8.02;;;;;;;38.65;47.41;96342.44;6157861;23;20068;-86
2023/09/09 08:00:17;;;;;;;10.18;8.48;;;;;;;37.80;48.21;96348.25;6131575;23;20035;-86
2023/09/09 08:02:43;;;;;;;11.43;8.77;;;;;;;38.63;46.50;96350.22;6156552;23;20015;-86
2023/09/09 08:05:08;;;;;;;9.93;7.78;;;;;;;39.11;44.17;96349.59;6156025;23;20009;-86
2023/09/09 08:07:35;;;;;;;13.90;9.77;;;;;;;37.84;47.26;96354.66;6155652;23;20008;-86
2023/09/09 08:10:00;;;;;;;11.63;9.40;;;;;;;38.86;46.03;96362.47;6156403;23;20057;-86
2023/09/09 08:12:26;;;;;;;10.27;7.65;;;;;;;40.07;43.99;96356.63;6137696;23;20005;-84
2023/09/09 08:15:06;;;;;;;8.98;7.88;;;;;;;39.85;43.00;96363.44;6146236;23;20009;-85
2023/09/09 08:17:32;;;;;;;9.90;8.50;;;;;;;39.69;43.43;96349.53;6131003;23;20017;-86
2023/09/09 08:19:57;;;;;;;10.18;8.88;;;;;;;40.15;42.84;96361.25;6181831;23;20047;-85
2023/09/09 08:22:23;;;;;;;11.20;9.30;;;;;;;39.72;43.95;96365.41;6157800;23;20404;-86
2023/09/09 08:24:49;;;;;;;11.68;9.77;;;;;;;39.38;45.14;96366.63;6131442;23;20028;-85
2023/09/09 08:27:14;;;;;;;11.50;8.45;;;;;;;39.63;44.20;96366.63;6129555;23;20011;-85
2023/09/09 08:29:44;;;;;;;10.77;8.23;;;;;;;39.77;43.56;96367.91;6130820;23;20013;-86
2023/09/09 08:32:10;;;;;;;9.98;8.55;;;;;;;40.48;42.75;96363.00;6130981;23;20450;-85
2023/09/09 08:34:37;;;;;;;10.98;7.75;;;;;;;40.87;42.06;96368.81;6130291;23;20005;-85
2023/09/09 08:37:02;;;;;;;8.80;7.60;;;;;;;40.98;41.38;96372.66;6154109;23;20041;-85
2023/09/09 08:39:28;;;;;;;9.15;8.15;;;;;;;40.94;41.23;96375.31;6127559;23;20005;-86
2023/09/09 08:42:09;;;;;;;9.63;7.97;;;;;;;41.33;40.30;96369.28;6178223;23;20004;-85
2023/09/09 08:45:00;;;;;;;9.63;8.63;;;;;;;41.20;41.28;96371.31;6126638;23;20519;-86
2023/09/09 08:47:29;;;;;;;11.25;7.63;;;;;;;41.17;40.55;96372.00;6127051;23;20028;-85
2023/09/09 08:49:59;;;;;;;9.43;8.27;;;;;;;41.12;40.79;96375.03;6127929;23;20012;-85
2023/09/09 08:52:27;;;;;;;10.80;8.02;;;;;;;40.82;40.95;96378.16;6151009;23;20991;-85
2023/09/09 08:54:53;;;;;;;9.27;7.70;;;;;;;41.56;41.24;96366.72;6128002;23;20421;-85
2023/09/09 08:57:19;;;;;;;8.82;7.93;;;;;;;41.90;40.14;96374.25;6153648;23;20005;-86
2023/09/09 08:59:47;;;;;;;9.52;8.52;;;;;;;41.89;39.73;96374.63;6130452;23;20005;-86
2023/09/09 09:02:13;;;;;;;11.85;8.45;;;;;;;42.79;39.67;96372.66;6154142;23;20184;-86
2023/09/09 09:04:39;;;;;;;10.57;7.90;;;;;;;40.33;43.34;96378.28;6155105;23;20019;-85
2023/09/09 09:07:05;;;;;;;10.93;7.90;;;;;;;40.95;40.20;96376.94;6154281;23;20004;-85
2023/09/09 09:09:31;;;;;;;10.60;7.60;;;;;;;41.11;40.37;96384.47;6130525;23;20491;-86
2023/09/09 09:12:03;;;;;;;9.65;8.40;;;;;;;40.55;40.64;96376.97;6130224;23;20001;-85
2023/09/09 09:14:44;;;;;;;8.82;7.03;;;;;;;40.53;39.89;96376.50;6180994;23;20005;-85
2023/09/09 09:17:11;;;;;;;8.43;7.53;;;;;;;40.72;39.25;96373.16;6129680;23;20021;-85
2023/09/09 09:19:36;;;;;;;9.65;7.32;;;;;;;41.24;38.29;96374.94;6129872;23;20004;-86
2023/09/09 09:22:02;;;;;;;8.30;6.63;;;;;;;41.17;38.72;96383.03;6130290;23;20005;-85
2023/09/09 09:24:28;;;;;;;9.77;7.53;;;;;;;41.19;37.64;96369.72;6130727;23;20031;-86
2023/09/09 09:26:55;;;;;;;9.13;7.00;;;;;;;41.15;37.48;96374.31;6129692;23;20341;-85
2023/09/09 09:29:21;;;;;;;9.80;7.50;;;;;;;40.05;38.46;96373.50;6129522;23;19997;-85
2023/09/09 09:31:51;;;;;;;10.90;7.40;;;;;;;41.21;36.13;96379.22;6154612;23;20028;-85
2023/09/09 09:34:19;;;;;;;10.52;7.20;;;;;;;41.17;36.66;96366.50;6130060;23;20005;-85
2023/09/09 09:36:46;;;;;;;9.07;6.97;;;;;;;42.08;37.07;96362.81;6129213;23;20430;-85
2023/09/09 09:39:12;;;;;;;10.40;7.38;;;;;;;40.97;39.34;96366.34;6154419;23;20460;-86
2023/09/09 09:41:43;;;;;;;9.25;6.40;;;;;;;41.82;37.07;96366.13;6129978;23;20032;-85
2023/09/09 09:44:19;;;;;;;7.70;6.90;;;;;;;40.67;38.47;96359.59;6130031;23;20461;-86
2023/09/09 09:47:05;;;;;;;7.03;5.78;;;;;;;42.02;35.26;96361.47;6154258;23;20076;-86
2023/09/09 09:49:36;;;;;;;9.75;6.40;;;;;;;40.55;38.56;96365.16;6154469;23;20016;-85
2023/09/09 09:52:02;;;;;;;10.60;6.53;;;;;;;41.59;35.64;96363.25;6154260;23;20005;-85
2023/09/09 09:54:30;;;;;;;8.02;6.03;;;;;;;41.42;34.82;96367.13;6129944;23;20013;-85
2023/09/09 09:57:00;;;;;;;8.70;7.15;;;;;;;41.65;34.58;96361.78;6153734;23;20009;-86
2023/09/09 09:59:35;;;;;;;7.43;6.07;;;;;;;42.57;34.50;96354.81;6129459;23;19997;-85
2023/09/09 10:02:03;;;;;;;8.70;6.32;;;;;;;42.13;34.46;96359.78;6129779;23;20084;-85
2023/09/09 10:04:38;;;;;;;7.07;6.05;;;;;;;42.68;34.14;96352.25;6130256;23;20035;-86
2023/09/09 10:07:08;;;;;;;8.55;6.50;;;;;;;42.06;33.94;96357.66;6153267;23;20009;-85
2023/09/09 10:09:37;;;;;;;9.70;6.97;;;;;;;42.29;34.23;96357.78;6129777;23;20058;-85
2023/09/09 10:12:10;;;;;;;9.15;6.57;;;;;;;40.76;35.50;96363.00;6130243;23;20071;-85
2023/09/09 10:14:38;;;;;;;9.20;6.03;;;;;;;39.99;37.67;96352.88;6130100;23;20012;-85
2023/09/09 10:17:08;;;;;;;7.78;6.13;;;;;;;41.03;37.12;96357.84;6153732;23;20056;-86
2023/09/09 10:19:39;;;;;;;9.27;6.85;;;;;;;40.95;36.18;96360.41;6153993;23;20024;-85
2023/09/09 10:22:06;;;;;;;9.93;6.32;;;;;;;42.28;34.15;96355.38;6154220;23;20032;-84
2023/09/09 10:24:34;;;;;;;18.88;16.92;;;;;;;41.91;35.93;96361.25;6129841;23;20041;-84
2023/09/09 10:27:02;;;;;;;8.43;5.97;;;;;;;40.87;36.66;96358.59;6180101;23;20004;-85
2023/09/09 10:29:29;;;;;;;9.43;6.32;;;;;;;41.97;35.72;96354.28;6129868;23;20016;-85
2023/09/09 10:31:57;;;;;;;8.57;5.72;;;;;;;41.10;35.60;96356.06;6154653;23;20048;-86
2023/09/09 10:34:24;;;;;;;9.88;6.88;;;;;;;40.73;35.93;96349.94;6154188;23;20032;-85
2023/09/09 10:36:52;;;;;;;9.18;6.38;;;;;;;40.99;36.61;96353.00;6153671;23;20048;-85
2023/09/09 10:39:21;;;;;;;10.27;6.53;;;;;;;40.63;37.58;96345.72;6154515;23;20001;-85
2023/09/09 10:41:47;;;;;;;8.95;6.13;;;;;;;40.73;36.79;96347.97;6153978;23;19935;-85
2023/09/09 10:44:15;;;;;;;8.93;6.22;;;;;;;40.90;37.44;96346.06;6155926;23;20005;-85
2023/09/09 10:46:41;;;;;;;9.10;6.72;;;;;;;40.74;38.58;96348.75;6155737;23;20005;-85
2023/09/09 10:49:07;;;;;;;9.57;6.88;;;;;;;40.71;38.14;96349.47;6131336;23;20132;-85
2023/09/09 10:51:49;;;;;;;12.20;7.57;;;;;;;40.55;36.68;96349.41;6130581;23;20791;-86
2023/09/09 10:54:18;;;;;;;8.60;6.43;;;;;;;41.81;36.39;96334.94;6155592;23;20008;-85
2023/09/09 10:56:59;;;;;;;6.60;5.82;;;;;;;42.47;36.22;96344.34;6130832;23;20036;-85
2023/09/09 10:59:30;;;;;;;10.68;8.98;;;;;;;40.19;39.12;96345.63;6130641;23;20001;-85
2023/09/09 11:02:18;;;;;;;9.20;6.85;;;;;;;40.61;39.19;96350.78;6131520;23;20040;-85
2023/09/09 11:04:57;;;;;;;9.45;6.15;;;;;;;42.34;36.80;96338.16;6156288;23;20011;-85
2023/09/09 11:07:43;;;;;;;9.20;6.78;;;;;;;40.97;38.73;96349.78;6154299;23;20009;-85
2023/09/09 11:10:09;;;;;;;9.23;6.97;;;;;;;41.61;38.37;96347.09;6131319;23;20032;-85
2023/09/09 11:12:49;;;;;;;9.93;7.22;;;;;;;40.63;39.51;96344.94;6130568;23;20013;-85
2023/09/09 11:15:15;;;;;;;9.35;6.72;;;;;;;41.84;37.73;96336.19;6131834;23;20020;-84
2023/09/09 11:17:45;;;;;;;8.35;5.97;;;;;;;42.40;36.48;96333.13;6180611;23;20008;-84
2023/09/09 11:20:12;;;;;;;8.35;6.70;;;;;;;42.00;37.04;96336.19;6130668;23;20091;-84